^^
Your Local Weather - Clay, NY Station Historical Data
Daily Summary for April 9, 2017 Units:  Metric    English   Both
« Previous Day
Next Day »
Daily Weekly Monthly Yearly Custom
  High: Low: Average:
Temperature: 19.8 °C -1.3 °C 10.2 °C
Dew Point: 2.2 °C -5.3 °C -1.8 °C
Humidity: 87% 21% 48%
Wind Speed: 8km/h 0km/h 1.9km/h
Wind Gust: 14.5km/h - -
Wind- - South
Pressure: 1018.5 hPa 1014.1 hPa -
Precipitation: 0 mm    
Historical Graphs
 
 
Tabular Data for April 9, 2017
Time Temperature Dew Point Pressure Wind Wind Speed Wind Gust Humidity Rainfall Rate (Hourly) solar
00:02 0.7 °C -5.3 °C 1015.1 hPa Calm     64% 0 mm 0 W/m2
00:08 0.6 °C -5.2 °C 1015.5 hPa Calm     65% 0 mm 0 W/m2
00:14 0.5 °C -5.1 °C 1015.5 hPa Calm     66% 0 mm 0 W/m2
00:20 0.6 °C -5.1 °C 1015.5 hPa Calm     66% 0 mm 0 W/m2
00:26 0.5 °C -5.1 °C 1015.5 hPa Calm     66% 0 mm 0 W/m2
00:32 0.6 °C -4.6 °C 1015.5 hPa Calm     68% 0 mm 0 W/m2
00:38 0.9 °C -4.3 °C 1015.5 hPa Calm     68% 0 mm 0 W/m2
00:44 1.2 °C -4.1 °C 1015.5 hPa Calm     68% 0 mm 0 W/m2
00:50 1.6 °C -3.9 °C 1015.1 hPa Calm     67% 0 mm 0 W/m2
00:56 1.9 °C -3.6 °C 1015.5 hPa Calm     67% 0 mm 0 W/m2
01:02 2.2 °C -3.7 °C 1015.1 hPa Calm     65% 0 mm 0 W/m2
01:08 2.3 °C -3.8 °C 1015.5 hPa Calm     64% 0 mm 0 W/m2
01:14 2.4 °C -3.7 °C 1015.5 hPa Calm     64% 0 mm 0 W/m2
01:18 2.4 °C -3.7 °C 1015.5 hPa Calm     64% 0 mm 0 W/m2
01:24 2.4 °C -3.7 °C 1015.5 hPa Calm     64% 0 mm 0 W/m2
01:30 2.4 °C -3.7 °C 1015.5 hPa Calm     64% 0 mm 0 W/m2
01:36 2.4 °C -3.7 °C 1015.5 hPa Calm     64% 0 mm 0 W/m2
01:42 2.3 °C -3.4 °C 1015.5 hPa Calm     66% 0 mm 0 W/m2
01:48 2.2 °C -3.7 °C 1015.5 hPa Calm     65% 0 mm 0 W/m2
01:54 2.1 °C -3.8 °C 1015.5 hPa Calm     65% 0 mm 0 W/m2
02:00 2.2 °C -3.9 °C 1015.5 hPa Calm     64% 0 mm 0 W/m2
02:06 2.3 °C -3.8 °C 1015.5 hPa Calm     64% 0 mm 0 W/m2
02:12 2.4 °C -3.9 °C 1015.5 hPa Calm     63% 0 mm 0 W/m2
02:18 2.6 °C -3.9 °C 1015.8 hPa Calm   4.8 km/h 62% 0 mm 0 W/m2
02:24 2.8 °C -3.7 °C 1015.8 hPa Calm     62% 0 mm 0 W/m2
02:30 2.8 °C -3.7 °C 1015.8 hPa Calm     62% 0 mm 0 W/m2
02:36 2.7 °C -3.9 °C 1015.8 hPa Calm     62% 0 mm 0 W/m2
02:42 2.4 °C -3.9 °C 1015.8 hPa Calm     63% 0 mm 0 W/m2
02:48 2.2 °C -3.9 °C 1015.8 hPa Calm     64% 0 mm 0 W/m2
02:54 2.1 °C -4 °C 1015.8 hPa Calm     64% 0 mm 0 W/m2
03:00 2.1 °C -4.1 °C 1015.8 hPa Calm     64% 0 mm 0 W/m2
03:06 1.9 °C -3.9 °C 1016.1 hPa Calm     65% 0 mm 0 W/m2
03:12 1.8 °C -3.5 °C 1015.8 hPa Calm     68% 0 mm 0 W/m2
03:18 1.6 °C -3.9 °C 1015.8 hPa Calm     67% 0 mm 0 W/m2
03:24 1.6 °C -3.7 °C 1016.1 hPa Calm     68% 0 mm 0 W/m2
03:30 1.4 °C -3.8 °C 1016.1 hPa Calm     68% 0 mm 0 W/m2
03:36 1.3 °C -3.3 °C 1016.1 hPa Calm     71% 0 mm 0 W/m2
03:42 1.2 °C -3.1 °C 1016.1 hPa Calm     73% 0 mm 0 W/m2
03:48 1.1 °C -3.4 °C 1015.8 hPa Calm     72% 0 mm 0 W/m2
03:54 0.9 °C -3.6 °C 1016.1 hPa Calm     72% 0 mm 0 W/m2
04:00 0.8 °C -3.7 °C 1016.5 hPa Calm     72% 0 mm 0 W/m2
04:06 0.8 °C -3.5 °C 1016.5 hPa Calm     73% 0 mm 0 W/m2
04:12 0.8 °C -3.3 °C 1016.8 hPa Calm     74% 0 mm 0 W/m2
04:18 0.7 °C -3.4 °C 1016.8 hPa Calm     74% 0 mm 0 W/m2
04:24 0.5 °C -3.6 °C 1016.8 hPa Calm     74% 0 mm 0 W/m2
04:30 0.3 °C -3.6 °C 1016.8 hPa Calm     75% 0 mm 0 W/m2
04:36 0.1 °C -3.6 °C 1016.8 hPa Calm     76% 0 mm 0 W/m2
04:42 0.1 °C -3.5 °C 1016.8 hPa Calm     77% 0 mm 0 W/m2
04:48 -0.1 °C -3.7 °C 1016.8 hPa Calm     77% 0 mm 0 W/m2
04:54 -0.2 °C -3.6 °C 1016.8 hPa Calm     78% 0 mm 0 W/m2
05:00 -0.2 °C -3.4 °C 1016.8 hPa Calm     79% 0 mm 0 W/m2
05:06 -0.3 °C -3.4 °C 1017.2 hPa Calm     80% 0 mm 0 W/m2
05:12 -0.6 °C -3.6 °C 1017.2 hPa Calm     80% 0 mm 0 W/m2
05:18 -0.7 °C -3.8 °C 1017.2 hPa Calm     79% 0 mm 0 W/m2
05:24 -0.7 °C -3.7 °C 1017.2 hPa Calm     80% 0 mm 0 W/m2
05:30 -0.8 °C -3.7 °C 1017.2 hPa Calm     81% 0 mm 0 W/m2
05:36 -0.9 °C -3.8 °C 1017.2 hPa Calm     81% 0 mm 0 W/m2
05:42 -1.1 °C -3.7 °C 1017.2 hPa Calm     82% 0 mm 0 W/m2
05:48 -1.1 °C -3.6 °C 1017.2 hPa Calm     83% 0 mm 0 W/m2
05:54 -1.2 °C -3.7 °C 1017.5 hPa Calm     83% 0 mm 0 W/m2
06:00 -1.3 °C -3.8 °C 1017.2 hPa Calm     83% 0 mm 0 W/m2
06:06 -1.3 °C -3.8 °C 1017.2 hPa Calm     83% 0 mm 0 W/m2
06:12 -1.3 °C -3.8 °C 1017.2 hPa Calm     83% 0 mm 0 W/m2
06:18 -1.3 °C -3.6 °C 1017.5 hPa Calm     84% 0 mm 0 W/m2
06:24 -1.2 °C -3.6 °C 1017.5 hPa Calm     84% 0 mm 0 W/m2
06:30 -1.3 °C -3.6 °C 1017.5 hPa Calm     84% 0 mm 0 W/m2
06:36 -1.3 °C -3.6 °C 1017.5 hPa Calm     84% 0 mm 5 W/m2
06:42 -1.2 °C -3.6 °C 1017.8 hPa Calm     84% 0 mm 9 W/m2
06:48 -1.2 °C -3.4 °C 1017.8 hPa Calm     85% 0 mm 11 W/m2
06:54 -1.2 °C -3.4 °C 1017.8 hPa Calm     85% 0 mm 12 W/m2
07:00 -1.2 °C -3.2 °C 1018.2 hPa Calm     86% 0 mm 16 W/m2
07:06 -1.2 °C -3.2 °C 1018.2 hPa Calm     86% 0 mm 21 W/m2
07:12 -1.2 °C -3.1 °C 1018.2 hPa Calm     87% 0 mm 21 W/m2
07:18 -1.1 °C -3 °C 1018.2 hPa Calm     87% 0 mm 26 W/m2
07:24 -1 °C -2.9 °C 1018.2 hPa Calm     87% 0 mm 26 W/m2
07:30 -0.9 °C -2.8 °C 1018.2 hPa Calm     87% 0 mm 42 W/m2
07:36 -0.6 °C -2.4 °C 1018.2 hPa Calm     87% 0 mm 139 W/m2
07:42 0.3 °C -1.6 °C 1018.2 hPa Calm     87% 0 mm 186 W/m2
07:48 1.2 °C -1.2 °C 1018.2 hPa Calm     84% 0 mm 202 W/m2
07:54 2.1 °C -0.9 °C 1018.5 hPa Calm     81% 0 mm 204 W/m2
08:00 2.6 °C -1.1 °C 1018.5 hPa Calm     77% 0 mm 211 W/m2
08:06 3.2 °C -1.2 °C 1018.5 hPa Calm   1.6 km/h 73% 0 mm 188 W/m2
08:12 3.7 °C -1.3 °C 1018.5 hPa NNE 1.6 km/h 4.8 km/h 70% 0 mm 193 W/m2
08:18 4.1 °C -1.3 °C 1018.5 hPa NNE 1.6 km/h 4.8 km/h 68% 0 mm 279 W/m2
08:24 4.6 °C -0.8 °C 1018.5 hPa NNE 1.6 km/h 1.6 km/h 68% 0 mm 232 W/m2
08:30 5.1 °C -0.5 °C 1018.5 hPa Calm   1.6 km/h 67% 0 mm 232 W/m2
08:36 5.6 °C -0.7 °C 1018.5 hPa Calm   1.6 km/h 64% 0 mm 278 W/m2
08:42 5.9 °C -0.6 °C 1018.5 hPa ENE 1.6 km/h 3.2 km/h 63% 0 mm 297 W/m2
08:48 6.4 °C -0.8 °C 1018.5 hPa Calm   3.2 km/h 60% 0 mm 264 W/m2
08:54 6.9 °C -0.8 °C 1018.5 hPa Calm     58% 0 mm 253 W/m2
09:00 7.2 °C -0.6 °C 1018.5 hPa Calm     58% 0 mm 279 W/m2
09:06 7.6 °C -0.9 °C 1018.5 hPa Calm     55% 0 mm 272 W/m2
09:12 8 °C -0.8 °C 1018.5 hPa Calm     54% 0 mm 274 W/m2
09:18 8.1 °C -0.7 °C 1018.5 hPa East 1.6 km/h 3.2 km/h 54% 0 mm 378 W/m2
09:24 8.5 °C -0.3 °C 1018.5 hPa East 1.6 km/h 3.2 km/h 54% 0 mm 461 W/m2
09:30 9.1 °C 0.2 °C 1018.5 hPa Calm   1.6 km/h 54% 0 mm 461 W/m2
09:36 9.5 °C -0.4 °C 1018.5 hPa East 1.6 km/h 1.6 km/h 50% 0 mm 483 W/m2
09:42 9.9 °C -0.6 °C 1018.5 hPa Calm   1.6 km/h 48% 0 mm 536 W/m2
09:48 10.3 °C -0.8 °C 1018.5 hPa Calm   1.6 km/h 46% 0 mm 578 W/m2
09:54 11.1 °C -0.4 °C 1018.5 hPa Calm   1.6 km/h 45% 0 mm 592 W/m2
10:00 11.3 °C -0.2 °C 1018.5 hPa Calm     45% 0 mm 605 W/m2
10:06 11.7 °C -0.8 °C 1018.5 hPa Calm   4.8 km/h 42% 0 mm 613 W/m2
10:12 12.1 °C -0.8 °C 1018.2 hPa SSW 3.2 km/h 3.2 km/h 41% 0 mm 642 W/m2
10:18 12.5 °C -0.4 °C 1018.2 hPa SSW 1.6 km/h 3.2 km/h 41% 0 mm 657 W/m2
10:24 12.7 °C -0.9 °C 1018.2 hPa South 1.6 km/h 6.4 km/h 39% 0 mm 663 W/m2
10:30 12.6 °C -0.7 °C 1018.2 hPa SSE 3.2 km/h 4.8 km/h 40% 0 mm 670 W/m2
10:36 12.9 °C -0.7 °C 1018.2 hPa SSW 3.2 km/h 6.4 km/h 39% 0 mm 701 W/m2
10:42 13.4 °C -1.4 °C 1018.2 hPa South 1.6 km/h 3.2 km/h 36% 0 mm 714 W/m2
10:48 13.8 °C 1.1 °C 1018.2 hPa South 1.6 km/h 3.2 km/h 42% 0 mm 738 W/m2
10:54 13.5 °C -0.9 °C 1018.2 hPa South 1.6 km/h 4.8 km/h 37% 0 mm 745 W/m2
11:00 13.8 °C -1.4 °C 1017.8 hPa South 3.2 km/h 3.2 km/h 35% 0 mm 759 W/m2
11:06 13.8 °C -1.1 °C 1017.8 hPa South 1.6 km/h 4.8 km/h 36% 0 mm 770 W/m2
11:12 14.3 °C -1 °C 1017.8 hPa South 1.6 km/h 1.6 km/h 35% 0 mm 789 W/m2
11:18 14.7 °C -1.1 °C 1017.8 hPa SW 1.6 km/h 3.2 km/h 34% 0 mm 798 W/m2
11:24 14.8 °C -0.9 °C 1017.8 hPa WSW 1.6 km/h 3.2 km/h 34% 0 mm 814 W/m2
11:30 15.1 °C -1.6 °C 1017.8 hPa WSW 3.2 km/h 3.2 km/h 32% 0 mm 826 W/m2
11:36 15.4 °C 1.1 °C 1017.8 hPa SSE 4.8 km/h 6.4 km/h 38% 0 mm 851 W/m2
11:42 15.2 °C 0.6 °C 1017.8 hPa SSE 4.8 km/h 6.4 km/h 37% 0 mm 622 W/m2
11:48 15 °C 0.1 °C 1017.8 hPa South 4.8 km/h 6.4 km/h 36% 0 mm 833 W/m2
11:54 15.4 °C -0.4 °C 1017.8 hPa SSE 4.8 km/h 8 km/h 34% 0 mm 726 W/m2
12:00 15.4 °C 0.4 °C 1017.8 hPa SSW 3.2 km/h 3.2 km/h 36% 0 mm 846 W/m2
12:06 15.8 °C -0.8 °C 1017.5 hPa SSE 1.6 km/h 8 km/h 32% 0 mm 860 W/m2
12:12 16 °C -0.3 °C 1017.5 hPa SSE 4.8 km/h 6.4 km/h 33% 0 mm 842 W/m2
12:18 16.3 °C -0.9 °C 1017.5 hPa South 6.4 km/h 11.3 km/h 31% 0 mm 851 W/m2
12:24 16.4 °C 0.1 °C 1017.5 hPa West 6.4 km/h 6.4 km/h 33% 0 mm 867 W/m2
12:30 16.6 °C -3.6 °C 1017.5 hPa West 6.4 km/h 11.3 km/h 25% 0 mm 831 W/m2
12:36 16.7 °C -1.9 °C 1017.5 hPa SW 6.4 km/h 11.3 km/h 28% 0 mm 840 W/m2
12:42 16.9 °C -0.3 °C 1017.2 hPa SSW 4.8 km/h 8 km/h 31% 0 mm 896 W/m2
12:48 16.9 °C -2.3 °C 1017.2 hPa SSW 4.8 km/h 8 km/h 27% 0 mm 831 W/m2
12:54 17 °C -0.7 °C 1017.2 hPa SW 6.4 km/h 9.7 km/h 30% 0 mm 612 W/m2
13:00 17.1 °C -1.6 °C 1017.2 hPa SSW 6.4 km/h 9.7 km/h 28% 0 mm 726 W/m2
13:06 17.1 °C 0.3 °C 1017.2 hPa SSW 6.4 km/h 11.3 km/h 32% 0 mm 853 W/m2
13:14 17.1 °C -2.1 °C 1017.2 hPa South 4.8 km/h 9.7 km/h 27% 0 mm 849 W/m2
13:20 17.4 °C -0.4 °C 1017.2 hPa South 4.8 km/h 12.9 km/h 30% 0 mm 837 W/m2
13:26 17 °C -2.7 °C 1017.2 hPa South 6.4 km/h 12.9 km/h 26% 0 mm 849 W/m2
13:32 17.2 °C -3 °C 1017.2 hPa SW 8 km/h 9.7 km/h 25% 0 mm 851 W/m2
13:38 17.7 °C -1.6 °C 1017.2 hPa SSW 6.4 km/h 9.7 km/h 27% 0 mm 847 W/m2
13:44 17.6 °C -2.2 °C 1017.2 hPa SSE 4.8 km/h 14.5 km/h 26% 0 mm 830 W/m2
13:50 17.3 °C -1.9 °C 1017.2 hPa SSW 6.4 km/h 6.4 km/h 27% 0 mm 828 W/m2
13:56 18.1 °C -0.8 °C 1017.2 hPa West 4.8 km/h 6.4 km/h 28% 0 mm 826 W/m2
14:02 18.1 °C -0.7 °C 1016.8 hPa South 4.8 km/h 6.4 km/h 28% 0 mm 824 W/m2
14:08 17.9 °C -2.4 °C 1016.8 hPa SSE 6.4 km/h 9.7 km/h 25% 0 mm 810 W/m2
14:14 18 °C -1.3 °C 1016.8 hPa SSE 6.4 km/h 9.7 km/h 27% 0 mm 802 W/m2
14:18 18.3 °C -1.1 °C 1016.8 hPa SSW 6.4 km/h 9.7 km/h 27% 0 mm 798 W/m2
14:26 18.5 °C -1.4 °C 1016.8 hPa SSE 4.8 km/h 11.3 km/h 26% 0 mm 775 W/m2
14:32 17.9 °C -2.9 °C 1016.8 hPa South 6.4 km/h 8 km/h 24% 0 mm 777 W/m2
14:38 18.2 °C -1.1 °C 1016.5 hPa SSW 6.4 km/h 11.3 km/h 27% 0 mm 679 W/m2
14:44 18.5 °C -1.9 °C 1016.5 hPa WSW 8 km/h 8 km/h 25% 0 mm 735 W/m2
14:50 18.6 °C -1.8 °C 1016.5 hPa SSE 6.4 km/h 11.3 km/h 25% 0 mm 728 W/m2
14:56 18.7 °C -1.7 °C 1016.5 hPa South 6.4 km/h 11.3 km/h 25% 0 mm 673 W/m2
15:02 18.8 °C -2.8 °C 1016.1 hPa SW 4.8 km/h 6.4 km/h 23% 0 mm 659 W/m2
15:08 18.7 °C -3.5 °C 1016.1 hPa SSW 6.4 km/h 9.7 km/h 22% 0 mm 670 W/m2
15:14 18.9 °C -3.3 °C 1016.1 hPa SW 6.4 km/h 9.7 km/h 22% 0 mm 659 W/m2
15:20 18.9 °C -2.2 °C 1016.1 hPa SSE 4.8 km/h 4.8 km/h 24% 0 mm 661 W/m2
15:26 18.9 °C -1 °C 1016.1 hPa SSE 6.4 km/h 11.3 km/h 26% 0 mm 659 W/m2
15:32 18.9 °C -2.7 °C 1016.1 hPa SSE 8 km/h 8 km/h 23% 0 mm 621 W/m2
15:40 19 °C -2.6 °C 1016.1 hPa SSW 6.4 km/h 11.3 km/h 23% 0 mm 635 W/m2
15:46 19.1 °C -3.1 °C 1015.8 hPa South 8 km/h 11.3 km/h 22% 0 mm 649 W/m2
15:52 19.4 °C -1.7 °C 1015.8 hPa SW 6.4 km/h 14.5 km/h 24% 0 mm 605 W/m2
15:58 19 °C -2.6 °C 1015.8 hPa South 8 km/h 14.5 km/h 23% 0 mm 606 W/m2
16:04 19.1 °C -1.9 °C 1015.8 hPa South 8 km/h 11.3 km/h 24% 0 mm 585 W/m2
16:10 19.4 °C -1.7 °C 1015.5 hPa SW 6.4 km/h 9.7 km/h 24% 0 mm 490 W/m2
16:16 19.4 °C -1.1 °C 1015.8 hPa SSW 6.4 km/h 9.7 km/h 25% 0 mm 471 W/m2
16:22 19.5 °C -3.4 °C 1015.5 hPa SW 6.4 km/h 9.7 km/h 21% 0 mm 408 W/m2
16:28 19.6 °C -3.3 °C 1015.5 hPa WSW 4.8 km/h 9.7 km/h 21% 0 mm 462 W/m2
16:34 19.7 °C -1.5 °C 1015.5 hPa SSW 6.4 km/h 12.9 km/h 24% 0 mm 434 W/m2
16:40 19.8 °C -2.6 °C 1015.5 hPa South 6.4 km/h 6.4 km/h 22% 0 mm 446 W/m2
16:46 19.7 °C -3.2 °C 1015.5 hPa WSW 6.4 km/h 8 km/h 21% 0 mm 355 W/m2
16:52 19.8 °C -0.8 °C 1015.5 hPa South 4.8 km/h 4.8 km/h 25% 0 mm 371 W/m2
16:58 19.8 °C -2.6 °C 1015.5 hPa SSW 3.2 km/h 4.8 km/h 22% 0 mm 287 W/m2
17:04 19.6 °C -2.8 °C 1015.1 hPa South 4.8 km/h 8 km/h 22% 0 mm 255 W/m2
17:10 19.5 °C -2.8 °C 1015.1 hPa SSW 4.8 km/h 4.8 km/h 22% 0 mm 243 W/m2
17:16 19.5 °C -2.2 °C 1015.1 hPa South 3.2 km/h 6.4 km/h 23% 0 mm 278 W/m2
17:22 19.6 °C -2.8 °C 1015.1 hPa South 4.8 km/h 4.8 km/h 22% 0 mm 279 W/m2
17:28 19.6 °C -2.1 °C 1015.1 hPa West 6.4 km/h 11.3 km/h 23% 0 mm 258 W/m2
17:34 19.7 °C -2.6 °C 1015.1 hPa SSW 4.8 km/h 4.8 km/h 22% 0 mm 234 W/m2
17:40 19.7 °C -0.9 °C 1015.1 hPa SSE 3.2 km/h 4.8 km/h 25% 0 mm 220 W/m2
17:46 19.7 °C -2.7 °C 1015.1 hPa SSE 3.2 km/h 6.4 km/h 22% 0 mm 232 W/m2
17:52 19.7 °C -1.5 °C 1015.1 hPa South 4.8 km/h 9.7 km/h 24% 0 mm 237 W/m2
17:58 19.6 °C -1 °C 1014.8 hPa SSE 4.8 km/h 9.7 km/h 25% 0 mm 176 W/m2
18:04 19.6 °C -0.4 °C 1014.8 hPa SSE 3.2 km/h 8 km/h 26% 0 mm 156 W/m2
18:10 19.6 °C -2.1 °C 1014.8 hPa SSE 4.8 km/h 4.8 km/h 23% 0 mm 135 W/m2
18:16 19.6 °C -1 °C 1014.8 hPa SW 4.8 km/h 6.4 km/h 25% 0 mm 125 W/m2
18:22 19.4 °C -1.1 °C 1014.4 hPa South 3.2 km/h 4.8 km/h 25% 0 mm 125 W/m2
18:28 19.4 °C -1.1 °C 1014.4 hPa South 3.2 km/h 4.8 km/h 25% 0 mm 111 W/m2
18:34 19.4 °C -0.6 °C 1014.4 hPa South 3.2 km/h 4.8 km/h 26% 0 mm 91 W/m2
18:40 19.4 °C -1.2 °C 1014.4 hPa SSE 1.6 km/h 6.4 km/h 25% 0 mm 93 W/m2
18:46 19.2 °C -0.8 °C 1014.4 hPa SSE 1.6 km/h 6.4 km/h 26% 0 mm 69 W/m2
18:52 19.2 °C -1.3 °C 1014.4 hPa SSE 1.6 km/h 1.6 km/h 25% 0 mm 58 W/m2
18:58 19.1 °C -0.4 °C 1014.4 hPa SSE 1.6 km/h 1.6 km/h 27% 0 mm 42 W/m2
19:04 18.8 °C -0.6 °C 1014.4 hPa Calm     27% 0 mm 32 W/m2
19:10 18.6 °C -0.3 °C 1014.4 hPa Calm   1.6 km/h 28% 0 mm 25 W/m2
19:16 18.2 °C -0.7 °C 1014.4 hPa Calm   1.6 km/h 28% 0 mm 18 W/m2
19:22 17.7 °C -0.1 °C 1014.4 hPa Calm     30% 0 mm 14 W/m2
19:28 17.3 °C -0.1 °C 1014.4 hPa Calm     31% 0 mm 11 W/m2
19:34 16.7 °C -0.1 °C 1014.4 hPa Calm     32% 0 mm 7 W/m2
19:40 15.8 °C 1.5 °C 1014.1 hPa Calm     38% 0 mm 0 W/m2
19:46 15.3 °C 2.2 °C 1014.1 hPa SSE 1.6 km/h 1.6 km/h 41% 0 mm 0 W/m2
19:52 14.8 °C 2.1 °C 1014.1 hPa Calm     42% 0 mm 0 W/m2
19:58 14.4 °C 1.3 °C 1014.1 hPa Calm     41% 0 mm 0 W/m2
20:04 13.9 °C 1.9 °C 1014.1 hPa Calm     44% 0 mm 0 W/m2
20:10 13.6 °C 1.5 °C 1014.1 hPa Calm     44% 0 mm 0 W/m2
20:16 13.2 °C 0.9 °C 1014.1 hPa Calm     43% 0 mm 0 W/m2
20:22 12.8 °C 1.2 °C 1014.1 hPa Calm     45% 0 mm 0 W/m2
20:28 12.6 °C 1.8 °C 1014.1 hPa Calm     48% 0 mm 0 W/m2
20:34 12.3 °C 1.3 °C 1014.4 hPa Calm     47% 0 mm 0 W/m2
20:40 12.1 °C 0.8 °C 1014.4 hPa Calm     46% 0 mm 0 W/m2
20:46 11.8 °C 0.6 °C 1014.4 hPa Calm     46% 0 mm 0 W/m2
20:52 11.7 °C 1.3 °C 1014.4 hPa Calm     49% 0 mm 0 W/m2
20:58 11.6 °C 0.4 °C 1014.4 hPa Calm     46% 0 mm 0 W/m2
21:04 11.7 °C 0.8 °C 1014.4 hPa Calm     47% 0 mm 0 W/m2
21:10 11.6 °C 1.6 °C 1014.4 hPa Calm     50% 0 mm 0 W/m2
21:16 11.6 °C 0.9 °C 1014.4 hPa Calm     48% 0 mm 0 W/m2
21:22 11.7 °C 0.4 °C 1014.4 hPa Calm   1.6 km/h 46% 0 mm 0 W/m2
21:28 11.8 °C 0.9 °C 1014.4 hPa Calm   1.6 km/h 47% 0 mm 0 W/m2
21:34 11.9 °C 0.9 °C 1014.4 hPa Calm     47% 0 mm 0 W/m2
21:40 11.9 °C 0.4 °C 1014.4 hPa Calm     45% 0 mm 0 W/m2
21:46 12 °C 0.7 °C 1014.4 hPa Calm     46% 0 mm 0 W/m2
21:52 12.1 °C 0.8 °C 1014.4 hPa Calm     46% 0 mm 0 W/m2
21:58 12.4 °C 0.2 °C 1014.4 hPa SSE 1.6 km/h 1.6 km/h 43% 0 mm 0 W/m2
22:04 12.7 °C 0.1 °C 1014.4 hPa SSE 1.6 km/h 1.6 km/h 42% 0 mm 0 W/m2
22:10 12.9 °C -0.1 °C 1014.4 hPa Calm     41% 0 mm 0 W/m2
22:16 13.1 °C 0.1 °C 1014.4 hPa Calm   1.6 km/h 41% 0 mm 0 W/m2
22:22 13.4 °C 0.4 °C 1014.4 hPa SSE 1.6 km/h 1.6 km/h 41% 0 mm 0 W/m2
22:28 14.2 °C -0.3 °C 1014.4 hPa SSE 1.6 km/h 3.2 km/h 37% 0 mm 0 W/m2
22:34 14.5 °C -0.1 °C 1014.4 hPa South 1.6 km/h 3.2 km/h 37% 0 mm 0 W/m2
22:40 14.6 °C -0.7 °C 1014.4 hPa South 3.2 km/h 6.4 km/h 35% 0 mm 0 W/m2
22:46 14.9 °C -0.1 °C 1014.4 hPa SSE 3.2 km/h 6.4 km/h 36% 0 mm 0 W/m2
22:52 15 °C -0.3 °C 1014.4 hPa SSE 3.2 km/h 3.2 km/h 35% 0 mm 0 W/m2
22:58 15.1 °C -0.7 °C 1014.4 hPa South 1.6 km/h 3.2 km/h 34% 0 mm 0 W/m2
23:04 15.1 °C -1.1 °C 1014.4 hPa SSW 1.6 km/h 1.6 km/h 33% 0 mm 0 W/m2
23:10 14.9 °C -0.8 °C 1014.4 hPa South 1.6 km/h 1.6 km/h 34% 0 mm 0 W/m2
23:16 14.8 °C -0.6 °C 1014.4 hPa South 1.6 km/h 4.8 km/h 35% 0 mm 0 W/m2
23:22 14.6 °C -0.7 °C 1014.4 hPa SE 1.6 km/h 1.6 km/h 35% 0 mm 0 W/m2
23:28 14.6 °C -0.7 °C 1014.4 hPa South 3.2 km/h 4.8 km/h 35% 0 mm 0 W/m2
23:34 14.7 °C -0.7 °C 1014.4 hPa South 3.2 km/h 8 km/h 35% 0 mm 0 W/m2
23:38 14.8 °C -0.9 °C 1014.4 hPa South 3.2 km/h 8 km/h 34% 0 mm 0 W/m2
23:44 14.8 °C -1.3 °C 1014.4 hPa South 1.6 km/h 3.2 km/h 33% 0 mm 0 W/m2
23:50 14.7 °C -1 °C 1014.4 hPa SSW 1.6 km/h 1.6 km/h 34% 0 mm 0 W/m2
23:56 14.9 °C -0.8 °C 1014.8 hPa SSE 1.6 km/h 3.2 km/h 34% 0 mm 0 W/m2
Country Meadow, Clay, NY, USA
Compliments of Weather Underground - 2 mb